sensor_id;sensor_type;location;lat;lon;timestamp;P1;durP1;ratioP1;P2;durP2;ratioP2
53062;SDS011;40529;52.172;10.548;2023-02-15T00:01:35;99.82;;;28.65;;
53062;SDS011;40529;52.172;10.548;2023-02-15T00:04:02;67.72;;;27.58;;
53062;SDS011;40529;52.172;10.548;2023-02-15T00:06:28;63.25;;;28.13;;
53062;SDS011;40529;52.172;10.548;2023-02-15T00:08:54;66.55;;;28.23;;
53062;SDS011;40529;52.172;10.548;2023-02-15T00:11:20;59.58;;;28.58;;
53062;SDS011;40529;52.172;10.548;2023-02-15T00:14:16;67.97;;;30.02;;
53062;SDS011;40529;52.172;10.548;2023-02-15T00:16:43;59.97;;;27.77;;
53062;SDS011;40529;52.172;10.548;2023-02-15T00:19:10;68.32;;;28.42;;
53062;SDS011;40529;52.172;10.548;2023-02-15T00:21:36;71.90;;;29.77;;
53062;SDS011;40529;52.172;10.548;2023-02-15T00:24:03;68.05;;;26.98;;
53062;SDS011;40529;52.172;10.548;2023-02-15T00:26:29;56.72;;;27.17;;
53062;SDS011;40529;52.172;10.548;2023-02-15T00:28:56;54.35;;;26.08;;
53062;SDS011;40529;52.172;10.548;2023-02-15T00:31:26;79.82;;;28.65;;
53062;SDS011;40529;52.172;10.548;2023-02-15T00:33:52;63.83;;;27.88;;
53062;SDS011;40529;52.172;10.548;2023-02-15T00:36:18;56.30;;;27.00;;
53062;SDS011;40529;52.172;10.548;2023-02-15T00:38:44;72.28;;;29.13;;
53062;SDS011;40529;52.172;10.548;2023-02-15T00:41:10;63.35;;;27.90;;
53062;SDS011;40529;52.172;10.548;2023-02-15T00:43:36;62.63;;;28.35;;
53062;SDS011;40529;52.172;10.548;2023-02-15T00:46:03;57.40;;;26.63;;
53062;SDS011;40529;52.172;10.548;2023-02-15T00:48:29;65.25;;;26.58;;
53062;SDS011;40529;52.172;10.548;2023-02-15T00:50:57;79.53;;;27.00;;
53062;SDS011;40529;52.172;10.548;2023-02-15T00:53:23;85.30;;;27.65;;
53062;SDS011;40529;52.172;10.548;2023-02-15T00:55:49;83.28;;;26.35;;
53062;SDS011;40529;52.172;10.548;2023-02-15T00:58:15;119.47;;;28.83;;
53062;SDS011;40529;52.172;10.548;2023-02-15T01:00:45;106.45;;;27.20;;
53062;SDS011;40529;52.172;10.548;2023-02-15T01:03:12;83.97;;;25.42;;
53062;SDS011;40529;52.172;10.548;2023-02-15T01:05:38;90.22;;;26.23;;
53062;SDS011;40529;52.172;10.548;2023-02-15T01:08:04;103.78;;;29.52;;
53062;SDS011;40529;52.172;10.548;2023-02-15T01:10:30;89.45;;;27.67;;
53062;SDS011;40529;52.172;10.548;2023-02-15T01:12:56;94.20;;;27.02;;
53062;SDS011;40529;52.172;10.548;2023-02-15T01:15:22;76.55;;;26.98;;
53062;SDS011;40529;52.172;10.548;2023-02-15T01:17:48;77.50;;;28.95;;
53062;SDS011;40529;52.172;10.548;2023-02-15T01:20:18;57.67;;;20.88;;
53062;SDS011;40529;52.172;10.548;2023-02-15T01:22:44;66.45;;;27.63;;
53062;SDS011;40529;52.172;10.548;2023-02-15T01:25:10;74.00;;;28.15;;
53062;SDS011;40529;52.172;10.548;2023-02-15T01:27:36;74.55;;;28.17;;
53062;SDS011;40529;52.172;10.548;2023-02-15T01:30:02;60.60;;;26.63;;
53062;SDS011;40529;52.172;10.548;2023-02-15T01:32:29;63.80;;;25.95;;
53062;SDS011;40529;52.172;10.548;2023-02-15T01:34:55;77.90;;;27.90;;
53062;SDS011;40529;52.172;10.548;2023-02-15T01:37:21;57.08;;;25.83;;
53062;SDS011;40529;52.172;10.548;2023-02-15T01:39:47;64.57;;;26.20;;
53062;SDS011;40529;52.172;10.548;2023-02-15T01:42:13;85.30;;;27.23;;
53062;SDS011;40529;52.172;10.548;2023-02-15T01:45:02;105.35;;;26.52;;
53062;SDS011;40529;52.172;10.548;2023-02-15T01:50:44;77.60;;;26.75;;
53062;SDS011;40529;52.172;10.548;2023-02-15T01:52:52;67.85;;;27.55;;
53062;SDS011;40529;52.172;10.548;2023-02-15T01:55:19;66.85;;;25.98;;
53062;SDS011;40529;52.172;10.548;2023-02-15T01:57:46;102.85;;;27.48;;
53062;SDS011;40529;52.172;10.548;2023-02-15T02:00:12;68.95;;;26.75;;
53062;SDS011;40529;52.172;10.548;2023-02-15T02:02:42;66.93;;;26.85;;
53062;SDS011;40529;52.172;10.548;2023-02-15T02:05:09;73.45;;;26.58;;
53062;SDS011;40529;52.172;10.548;2023-02-15T02:07:36;86.38;;;28.65;;
53062;SDS011;40529;52.172;10.548;2023-02-15T02:10:04;88.18;;;28.00;;
53062;SDS011;40529;52.172;10.548;2023-02-15T02:12:30;80.65;;;28.73;;
53062;SDS011;40529;52.172;10.548;2023-02-15T02:14:57;66.40;;;26.83;;
53062;SDS011;40529;52.172;10.548;2023-02-15T02:25:17;60.08;;;24.75;;
53062;SDS011;40529;52.172;10.548;2023-02-15T02:35:49;63.13;;;25.90;;
53062;SDS011;40529;52.172;10.548;2023-02-15T02:38:31;64.75;;;27.50;;
53062;SDS011;40529;52.172;10.548;2023-02-15T02:41:04;69.00;;;26.08;;
53062;SDS011;40529;52.172;10.548;2023-02-15T02:46:00;64.15;;;26.00;;
53062;SDS011;40529;52.172;10.548;2023-02-15T02:48:29;76.90;;;25.83;;
53062;SDS011;40529;52.172;10.548;2023-02-15T02:50:56;121.68;;;30.75;;
53062;SDS011;40529;52.172;10.548;2023-02-15T02:53:22;147.35;;;31.60;;
53062;SDS011;40529;52.172;10.548;2023-02-15T02:55:53;67.53;;;27.17;;
53062;SDS011;40529;52.172;10.548;2023-02-15T02:58:23;103.65;;;28.42;;
53062;SDS011;40529;52.172;10.548;2023-02-15T03:00:56;63.13;;;27.48;;
53062;SDS011;40529;52.172;10.548;2023-02-15T03:03:27;55.85;;;25.15;;
53062;SDS011;40529;52.172;10.548;2023-02-15T03:05:55;57.95;;;27.02;;
53062;SDS011;40529;52.172;10.548;2023-02-15T03:08:23;56.45;;;25.00;;
53062;SDS011;40529;52.172;10.548;2023-02-15T03:10:53;54.80;;;24.58;;
53062;SDS011;40529;52.172;10.548;2023-02-15T03:13:19;56.55;;;25.13;;
53062;SDS011;40529;52.172;10.548;2023-02-15T03:15:45;58.85;;;25.30;;
53062;SDS011;40529;52.172;10.548;2023-02-15T03:18:33;51.35;;;24.58;;
53062;SDS011;40529;52.172;10.548;2023-02-15T03:21:00;58.42;;;25.15;;
53062;SDS011;40529;52.172;10.548;2023-02-15T03:23:27;55.08;;;25.02;;
53062;SDS011;40529;52.172;10.548;2023-02-15T03:25:57;61.00;;;25.58;;
53062;SDS011;40529;52.172;10.548;2023-02-15T03:28:46;66.60;;;23.55;;
53062;SDS011;40529;52.172;10.548;2023-02-15T03:31:11;68.22;;;25.58;;
53062;SDS011;40529;52.172;10.548;2023-02-15T03:33:41;53.95;;;25.13;;
53062;SDS011;40529;52.172;10.548;2023-02-15T03:36:09;57.80;;;24.55;;
53062;SDS011;40529;52.172;10.548;2023-02-15T03:38:44;54.85;;;25.00;;
53062;SDS011;40529;52.172;10.548;2023-02-15T03:41:13;93.32;;;25.90;;
53062;SDS011;40529;52.172;10.548;2023-02-15T03:46:13;59.33;;;24.25;;
53062;SDS011;40529;52.172;10.548;2023-02-15T03:48:45;80.88;;;25.75;;
53062;SDS011;40529;52.172;10.548;2023-02-15T03:51:14;51.85;;;25.13;;
53062;SDS011;40529;52.172;10.548;2023-02-15T03:56:28;47.35;;;21.95;;
53062;SDS011;40529;52.172;10.548;2023-02-15T03:58:54;55.00;;;23.02;;
53062;SDS011;40529;52.172;10.548;2023-02-15T04:01:45;48.17;;;22.63;;
53062;SDS011;40529;52.172;10.548;2023-02-15T04:04:22;47.67;;;23.63;;
53062;SDS011;40529;52.172;10.548;2023-02-15T04:06:49;75.95;;;24.05;;
53062;SDS011;40529;52.172;10.548;2023-02-15T04:09:15;51.10;;;22.95;;
53062;SDS011;40529;52.172;10.548;2023-02-15T04:11:59;47.33;;;23.05;;
53062;SDS011;40529;52.172;10.548;2023-02-15T04:14:25;49.45;;;23.20;;
53062;SDS011;40529;52.172;10.548;2023-02-15T04:17:10;75.75;;;23.35;;
53062;SDS011;40529;52.172;10.548;2023-02-15T04:19:36;54.35;;;23.88;;
53062;SDS011;40529;52.172;10.548;2023-02-15T04:22:20;60.08;;;23.73;;
53062;SDS011;40529;52.172;10.548;2023-02-15T04:25:05;55.92;;;24.40;;
53062;SDS011;40529;52.172;10.548;2023-02-15T04:27:34;49.83;;;23.67;;
53062;SDS011;40529;52.172;10.548;2023-02-15T04:30:00;53.10;;;23.35;;
53062;SDS011;40529;52.172;10.548;2023-02-15T04:32:26;103.18;;;25.15;;
53062;SDS011;40529;52.172;10.548;2023-02-15T04:34:52;63.78;;;26.67;;
53062;SDS011;40529;52.172;10.548;2023-02-15T04:37:18;57.97;;;24.17;;
53062;SDS011;40529;52.172;10.548;2023-02-15T04:39:44;116.40;;;26.33;;
53062;SDS011;40529;52.172;10.548;2023-02-15T04:42:10;100.43;;;25.35;;
53062;SDS011;40529;52.172;10.548;2023-02-15T04:44:36;73.65;;;24.65;;
53062;SDS011;40529;52.172;10.548;2023-02-15T04:47:02;74.78;;;25.10;;
53062;SDS011;40529;52.172;10.548;2023-02-15T04:49:28;49.75;;;22.77;;
53062;SDS011;40529;52.172;10.548;2023-02-15T04:51:54;51.67;;;22.83;;
53062;SDS011;40529;52.172;10.548;2023-02-15T04:54:20;50.33;;;23.13;;
53062;SDS011;40529;52.172;10.548;2023-02-15T04:56:46;42.30;;;21.88;;
53062;SDS011;40529;52.172;10.548;2023-02-15T04:59:12;40.10;;;20.88;;
53062;SDS011;40529;52.172;10.548;2023-02-15T05:01:38;43.88;;;21.67;;
53062;SDS011;40529;52.172;10.548;2023-02-15T05:04:04;43.17;;;21.35;;
53062;SDS011;40529;52.172;10.548;2023-02-15T05:06:30;38.47;;;19.73;;
53062;SDS011;40529;52.172;10.548;2023-02-15T05:08:56;40.38;;;21.23;;
53062;SDS011;40529;52.172;10.548;2023-02-15T05:11:24;48.22;;;20.80;;
53062;SDS011;40529;52.172;10.548;2023-02-15T05:13:50;56.60;;;21.30;;
53062;SDS011;40529;52.172;10.548;2023-02-15T05:16:16;39.30;;;21.75;;
53062;SDS011;40529;52.172;10.548;2023-02-15T05:18:42;39.13;;;19.95;;
53062;SDS011;40529;52.172;10.548;2023-02-15T05:21:08;41.53;;;20.65;;
53062;SDS011;40529;52.172;10.548;2023-02-15T05:23:34;38.42;;;20.15;;
53062;SDS011;40529;52.172;10.548;2023-02-15T05:26:00;36.70;;;19.67;;
53062;SDS011;40529;52.172;10.548;2023-02-15T05:28:45;35.67;;;19.40;;
53062;SDS011;40529;52.172;10.548;2023-02-15T05:31:12;39.50;;;19.63;;
53062;SDS011;40529;52.172;10.548;2023-02-15T05:33:38;33.63;;;18.58;;
53062;SDS011;40529;52.172;10.548;2023-02-15T05:36:05;37.28;;;18.95;;
53062;SDS011;40529;52.172;10.548;2023-02-15T05:38:31;34.60;;;19.52;;
53062;SDS011;40529;52.172;10.548;2023-02-15T05:40:57;31.77;;;18.63;;
53062;SDS011;40529;52.172;10.548;2023-02-15T05:43:24;31.83;;;17.42;;
53062;SDS011;40529;52.172;10.548;2023-02-15T05:45:54;35.60;;;18.73;;
53062;SDS011;40529;52.172;10.548;2023-02-15T05:48:20;32.33;;;18.67;;
53062;SDS011;40529;52.172;10.548;2023-02-15T05:50:56;32.03;;;18.52;;
53062;SDS011;40529;52.172;10.548;2023-02-15T05:53:22;32.30;;;18.67;;
53062;SDS011;40529;52.172;10.548;2023-02-15T05:55:48;29.98;;;17.38;;
53062;SDS011;40529;52.172;10.548;2023-02-15T05:58:14;34.00;;;18.88;;
53062;SDS011;40529;52.172;10.548;2023-02-15T06:00:39;31.02;;;17.45;;
53062;SDS011;40529;52.172;10.548;2023-02-15T06:03:05;31.23;;;18.33;;
53062;SDS011;40529;52.172;10.548;2023-02-15T06:05:31;34.85;;;19.02;;
53062;SDS011;40529;52.172;10.548;2023-02-15T06:07:58;32.03;;;18.55;;
53062;SDS011;40529;52.172;10.548;2023-02-15T06:10:24;37.88;;;19.52;;
53062;SDS011;40529;52.172;10.548;2023-02-15T06:12:50;34.47;;;19.02;;
53062;SDS011;40529;52.172;10.548;2023-02-15T06:15:16;33.03;;;17.90;;
53062;SDS011;40529;52.172;10.548;2023-02-15T06:17:42;38.58;;;19.20;;
53062;SDS011;40529;52.172;10.548;2023-02-15T06:20:08;34.05;;;18.55;;
53062;SDS011;40529;52.172;10.548;2023-02-15T06:22:34;51.35;;;19.50;;
53062;SDS011;40529;52.172;10.548;2023-02-15T06:25:00;31.33;;;18.83;;
53062;SDS011;40529;52.172;10.548;2023-02-15T06:27:26;33.67;;;18.92;;
53062;SDS011;40529;52.172;10.548;2023-02-15T06:29:52;33.08;;;18.13;;
53062;SDS011;40529;52.172;10.548;2023-02-15T06:32:18;38.55;;;20.42;;
53062;SDS011;40529;52.172;10.548;2023-02-15T06:34:44;43.92;;;20.60;;
53062;SDS011;40529;52.172;10.548;2023-02-15T06:37:10;45.80;;;20.10;;
53062;SDS011;40529;52.172;10.548;2023-02-15T06:39:36;37.95;;;19.77;;
53062;SDS011;40529;52.172;10.548;2023-02-15T06:42:02;37.03;;;19.65;;
53062;SDS011;40529;52.172;10.548;2023-02-15T06:44:28;40.67;;;20.90;;
53062;SDS011;40529;52.172;10.548;2023-02-15T06:46:54;39.35;;;19.70;;
53062;SDS011;40529;52.172;10.548;2023-02-15T06:49:20;36.00;;;19.17;;
53062;SDS011;40529;52.172;10.548;2023-02-15T06:51:46;39.45;;;20.40;;
53062;SDS011;40529;52.172;10.548;2023-02-15T06:54:12;45.58;;;22.17;;
53062;SDS011;40529;52.172;10.548;2023-02-15T06:56:38;40.00;;;19.98;;
53062;SDS011;40529;52.172;10.548;2023-02-15T06:59:04;41.90;;;21.17;;
53062;SDS011;40529;52.172;10.548;2023-02-15T07:01:30;44.60;;;22.60;;
53062;SDS011;40529;52.172;10.548;2023-02-15T07:03:56;39.85;;;22.00;;
53062;SDS011;40529;52.172;10.548;2023-02-15T07:06:22;44.55;;;22.00;;
53062;SDS011;40529;52.172;10.548;2023-02-15T07:08:48;48.10;;;23.73;;
53062;SDS011;40529;52.172;10.548;2023-02-15T07:11:14;45.40;;;23.25;;
53062;SDS011;40529;52.172;10.548;2023-02-15T07:13:58;49.38;;;23.85;;
53062;SDS011;40529;52.172;10.548;2023-02-15T07:16:24;44.38;;;22.02;;
53062;SDS011;40529;52.172;10.548;2023-02-15T07:18:50;43.40;;;21.65;;
53062;SDS011;40529;52.172;10.548;2023-02-15T07:21:16;47.53;;;23.10;;
53062;SDS011;40529;52.172;10.548;2023-02-15T07:23:42;47.08;;;24.23;;
53062;SDS011;40529;52.172;10.548;2023-02-15T07:26:08;46.90;;;23.30;;
53062;SDS011;40529;52.172;10.548;2023-02-15T07:28:34;48.85;;;24.25;;
53062;SDS011;40529;52.172;10.548;2023-02-15T07:31:01;49.92;;;25.30;;
53062;SDS011;40529;52.172;10.548;2023-02-15T07:33:28;50.95;;;25.88;;
53062;SDS011;40529;52.172;10.548;2023-02-15T07:35:56;50.28;;;25.40;;
53062;SDS011;40529;52.172;10.548;2023-02-15T07:38:23;54.08;;;27.55;;
53062;SDS011;40529;52.172;10.548;2023-02-15T07:40:49;54.75;;;25.88;;
53062;SDS011;40529;52.172;10.548;2023-02-15T07:43:15;47.88;;;25.50;;
53062;SDS011;40529;52.172;10.548;2023-02-15T07:45:41;53.63;;;26.08;;
53062;SDS011;40529;52.172;10.548;2023-02-15T07:48:07;48.42;;;24.90;;
53062;SDS011;40529;52.172;10.548;2023-02-15T07:50:33;53.65;;;25.58;;
53062;SDS011;40529;52.172;10.548;2023-02-15T07:53:01;47.20;;;23.88;;
53062;SDS011;40529;52.172;10.548;2023-02-15T07:55:27;50.72;;;24.85;;
53062;SDS011;40529;52.172;10.548;2023-02-15T07:57:53;55.60;;;26.75;;
53062;SDS011;40529;52.172;10.548;2023-02-15T08:00:19;50.15;;;25.80;;
53062;SDS011;40529;52.172;10.548;2023-02-15T08:02:50;54.45;;;25.73;;
53062;SDS011;40529;52.172;10.548;2023-02-15T08:05:35;53.95;;;26.13;;
53062;SDS011;40529;52.172;10.548;2023-02-15T08:08:01;55.08;;;26.63;;
53062;SDS011;40529;52.172;10.548;2023-02-15T08:10:27;57.47;;;26.70;;
53062;SDS011;40529;52.172;10.548;2023-02-15T08:13:11;58.80;;;27.60;;
53062;SDS011;40529;52.172;10.548;2023-02-15T08:15:37;56.30;;;26.50;;
53062;SDS011;40529;52.172;10.548;2023-02-15T08:18:03;60.33;;;27.38;;
53062;SDS011;40529;52.172;10.548;2023-02-15T08:20:29;55.67;;;27.33;;
53062;SDS011;40529;52.172;10.548;2023-02-15T08:22:55;60.15;;;26.85;;
53062;SDS011;40529;52.172;10.548;2023-02-15T08:25:21;64.72;;;29.40;;
53062;SDS011;40529;52.172;10.548;2023-02-15T08:27:47;56.60;;;26.67;;
53062;SDS011;40529;52.172;10.548;2023-02-15T08:30:14;50.60;;;25.75;;
53062;SDS011;40529;52.172;10.548;2023-02-15T08:32:40;55.20;;;25.92;;
53062;SDS011;40529;52.172;10.548;2023-02-15T08:35:06;57.60;;;27.17;;
53062;SDS011;40529;52.172;10.548;2023-02-15T08:37:33;55.35;;;27.27;;
53062;SDS011;40529;52.172;10.548;2023-02-15T08:39:59;55.60;;;27.02;;
53062;SDS011;40529;52.172;10.548;2023-02-15T08:42:25;51.17;;;25.98;;
53062;SDS011;40529;52.172;10.548;2023-02-15T08:44:51;48.67;;;24.98;;
53062;SDS011;40529;52.172;10.548;2023-02-15T08:47:17;57.50;;;27.27;;
53062;SDS011;40529;52.172;10.548;2023-02-15T08:49:44;55.95;;;27.48;;
53062;SDS011;40529;52.172;10.548;2023-02-15T08:52:10;64.50;;;29.35;;
53062;SDS011;40529;52.172;10.548;2023-02-15T08:54:36;61.70;;;29.60;;
53062;SDS011;40529;52.172;10.548;2023-02-15T08:57:02;58.38;;;27.17;;
53062;SDS011;40529;52.172;10.548;2023-02-15T08:59:28;63.38;;;28.20;;
53062;SDS011;40529;52.172;10.548;2023-02-15T09:01:54;59.50;;;28.25;;
53062;SDS011;40529;52.172;10.548;2023-02-15T09:04:20;56.88;;;26.90;;
53062;SDS011;40529;52.172;10.548;2023-02-15T09:06:48;56.63;;;27.48;;
53062;SDS011;40529;52.172;10.548;2023-02-15T09:09:15;51.85;;;27.63;;
53062;SDS011;40529;52.172;10.548;2023-02-15T09:11:42;57.88;;;28.63;;
53062;SDS011;40529;52.172;10.548;2023-02-15T09:14:12;50.90;;;26.45;;
53062;SDS011;40529;52.172;10.548;2023-02-15T09:16:39;51.90;;;26.05;;
53062;SDS011;40529;52.172;10.548;2023-02-15T09:19:05;46.78;;;25.30;;
53062;SDS011;40529;52.172;10.548;2023-02-15T09:21:32;48.88;;;26.55;;
53062;SDS011;40529;52.172;10.548;2023-02-15T09:23:59;51.65;;;26.02;;
53062;SDS011;40529;52.172;10.548;2023-02-15T09:26:26;47.40;;;24.70;;
53062;SDS011;40529;52.172;10.548;2023-02-15T09:28:53;49.08;;;24.20;;
53062;SDS011;40529;52.172;10.548;2023-02-15T09:31:24;43.75;;;22.88;;
53062;SDS011;40529;52.172;10.548;2023-02-15T09:33:51;41.72;;;23.35;;
53062;SDS011;40529;52.172;10.548;2023-02-15T09:38:44;37.45;;;21.45;;
53062;SDS011;40529;52.172;10.548;2023-02-15T09:41:21;41.40;;;22.20;;
53062;SDS011;40529;52.172;10.548;2023-02-15T09:46:22;39.00;;;21.15;;
53062;SDS011;40529;52.172;10.548;2023-02-15T09:48:52;37.50;;;20.48;;
53062;SDS011;40529;52.172;10.548;2023-02-15T09:51:27;26.00;;;15.55;;
53062;SDS011;40529;52.172;10.548;2023-02-15T09:54:09;34.63;;;19.88;;
53062;SDS011;40529;52.172;10.548;2023-02-15T09:56:45;32.47;;;19.67;;
53062;SDS011;40529;52.172;10.548;2023-02-15T10:06:48;18.75;;;12.65;;
53062;SDS011;40529;52.172;10.548;2023-02-15T10:14:48;16.02;;;8.98;;
53062;SDS011;40529;52.172;10.548;2023-02-15T10:17:23;15.52;;;10.20;;
53062;SDS011;40529;52.172;10.548;2023-02-15T10:22:30;14.30;;;9.18;;
53062;SDS011;40529;52.172;10.548;2023-02-15T10:27:29;13.50;;;9.60;;
53062;SDS011;40529;52.172;10.548;2023-02-15T10:30:09;14.82;;;10.32;;
53062;SDS011;40529;52.172;10.548;2023-02-15T10:35:26;14.63;;;9.93;;
53062;SDS011;40529;52.172;10.548;2023-02-15T10:38:17;18.00;;;11.30;;
53062;SDS011;40529;52.172;10.548;2023-02-15T10:40:50;19.15;;;12.98;;
53062;SDS011;40529;52.172;10.548;2023-02-15T10:51:16;18.42;;;12.20;;
53062;SDS011;40529;52.172;10.548;2023-02-15T11:01:30;17.45;;;11.05;;
53062;SDS011;40529;52.172;10.548;2023-02-15T11:06:36;15.30;;;10.98;;
53062;SDS011;40529;52.172;10.548;2023-02-15T11:09:05;14.23;;;9.93;;
53062;SDS011;40529;52.172;10.548;2023-02-15T11:11:36;14.98;;;10.18;;
53062;SDS011;40529;52.172;10.548;2023-02-15T11:14:14;14.02;;;9.98;;
53062;SDS011;40529;52.172;10.548;2023-02-15T11:16:41;15.27;;;10.30;;
53062;SDS011;40529;52.172;10.548;2023-02-15T11:19:22;14.30;;;9.45;;
53062;SDS011;40529;52.172;10.548;2023-02-15T11:21:53;12.45;;;9.38;;
53062;SDS011;40529;52.172;10.548;2023-02-15T11:24:20;12.82;;;9.35;;
53062;SDS011;40529;52.172;10.548;2023-02-15T11:26:49;11.15;;;7.97;;
53062;SDS011;40529;52.172;10.548;2023-02-15T11:31:59;13.95;;;8.77;;
53062;SDS011;40529;52.172;10.548;2023-02-15T11:34:29;11.82;;;7.53;;
53062;SDS011;40529;52.172;10.548;2023-02-15T11:37:14;13.88;;;8.20;;
53062;SDS011;40529;52.172;10.548;2023-02-15T11:39:41;10.30;;;6.97;;
53062;SDS011;40529;52.172;10.548;2023-02-15T11:42:16;10.90;;;6.97;;
53062;SDS011;40529;52.172;10.548;2023-02-15T11:45:04;10.85;;;7.32;;
53062;SDS011;40529;52.172;10.548;2023-02-15T11:47:34;11.98;;;7.50;;
53062;SDS011;40529;52.172;10.548;2023-02-15T11:50:00;11.07;;;7.35;;
53062;SDS011;40529;52.172;10.548;2023-02-15T11:52:27;11.75;;;7.40;;
53062;SDS011;40529;52.172;10.548;2023-02-15T11:54:53;11.20;;;6.88;;
53062;SDS011;40529;52.172;10.548;2023-02-15T11:57:26;12.48;;;7.35;;
53062;SDS011;40529;52.172;10.548;2023-02-15T12:00:14;11.88;;;7.35;;
53062;SDS011;40529;52.172;10.548;2023-02-15T12:02:42;11.40;;;7.03;;
53062;SDS011;40529;52.172;10.548;2023-02-15T12:05:12;14.65;;;7.25;;
53062;SDS011;40529;52.172;10.548;2023-02-15T12:07:44;12.10;;;5.25;;
53062;SDS011;40529;52.172;10.548;2023-02-15T12:10:25;11.43;;;7.35;;
53062;SDS011;40529;52.172;10.548;2023-02-15T12:13:34;8.38;;;5.68;;
53062;SDS011;40529;52.172;10.548;2023-02-15T12:15:42;9.15;;;5.43;;
53062;SDS011;40529;52.172;10.548;2023-02-15T12:20:57;9.80;;;6.00;;
53062;SDS011;40529;52.172;10.548;2023-02-15T12:23:24;10.40;;;5.68;;
53062;SDS011;40529;52.172;10.548;2023-02-15T12:25:53;8.47;;;5.33;;
53062;SDS011;40529;52.172;10.548;2023-02-15T12:28:33;8.57;;;4.90;;
53062;SDS011;40529;52.172;10.548;2023-02-15T12:31:07;9.40;;;5.75;;
53062;SDS011;40529;52.172;10.548;2023-02-15T12:33:41;11.40;;;5.43;;
53062;SDS011;40529;52.172;10.548;2023-02-15T12:36:24;10.32;;;6.00;;
53062;SDS011;40529;52.172;10.548;2023-02-15T12:39:03;9.60;;;5.32;;
53062;SDS011;40529;52.172;10.548;2023-02-15T12:41:30;9.07;;;5.72;;
53062;SDS011;40529;52.172;10.548;2023-02-15T12:46:58;13.68;;;6.45;;
53062;SDS011;40529;52.172;10.548;2023-02-15T12:49:24;12.57;;;6.60;;
53062;SDS011;40529;52.172;10.548;2023-02-15T12:51:52;12.80;;;5.85;;
53062;SDS011;40529;52.172;10.548;2023-02-15T12:56:47;11.03;;;6.00;;
53062;SDS011;40529;52.172;10.548;2023-02-15T12:59:13;11.23;;;6.50;;
53062;SDS011;40529;52.172;10.548;2023-02-15T13:01:45;10.00;;;6.32;;
53062;SDS011;40529;52.172;10.548;2023-02-15T13:04:19;9.75;;;6.03;;
53062;SDS011;40529;52.172;10.548;2023-02-15T13:06:47;13.23;;;6.82;;
53062;SDS011;40529;52.172;10.548;2023-02-15T13:09:15;11.98;;;6.78;;
53062;SDS011;40529;52.172;10.548;2023-02-15T13:11:41;11.43;;;6.78;;
53062;SDS011;40529;52.172;10.548;2023-02-15T13:14:18;13.68;;;7.20;;
53062;SDS011;40529;52.172;10.548;2023-02-15T13:16:45;13.18;;;7.65;;
53062;SDS011;40529;52.172;10.548;2023-02-15T13:19:18;14.35;;;8.18;;
53062;SDS011;40529;52.172;10.548;2023-02-15T13:21:49;13.30;;;7.68;;
53062;SDS011;40529;52.172;10.548;2023-02-15T13:24:25;14.18;;;8.43;;
53062;SDS011;40529;52.172;10.548;2023-02-15T13:26:54;19.45;;;11.00;;
53062;SDS011;40529;52.172;10.548;2023-02-15T13:29:22;20.20;;;10.23;;
53062;SDS011;40529;52.172;10.548;2023-02-15T13:31:52;15.77;;;7.55;;
53062;SDS011;40529;52.172;10.548;2023-02-15T13:34:29;12.25;;;7.50;;
53062;SDS011;40529;52.172;10.548;2023-02-15T13:37:17;9.68;;;6.50;;
53062;SDS011;40529;52.172;10.548;2023-02-15T13:47:24;16.90;;;8.40;;
53062;SDS011;40529;52.172;10.548;2023-02-15T13:52:22;12.63;;;7.32;;
53062;SDS011;40529;52.172;10.548;2023-02-15T14:05:28;11.40;;;6.95;;
53062;SDS011;40529;52.172;10.548;2023-02-15T14:08:01;13.60;;;7.85;;
53062;SDS011;40529;52.172;10.548;2023-02-15T14:24:16;13.95;;;8.65;;
53062;SDS011;40529;52.172;10.548;2023-02-15T14:26:59;15.85;;;8.30;;
53062;SDS011;40529;52.172;10.548;2023-02-15T14:32:01;14.25;;;8.82;;
53062;SDS011;40529;52.172;10.548;2023-02-15T14:34:50;14.40;;;10.23;;
53062;SDS011;40529;52.172;10.548;2023-02-15T14:37:16;14.75;;;9.77;;
53062;SDS011;40529;52.172;10.548;2023-02-15T14:39:47;15.10;;;9.57;;
53062;SDS011;40529;52.172;10.548;2023-02-15T14:42:58;17.15;;;9.32;;
53062;SDS011;40529;52.172;10.548;2023-02-15T14:45:26;17.90;;;9.80;;
53062;SDS011;40529;52.172;10.548;2023-02-15T14:48:15;14.98;;;8.95;;
53062;SDS011;40529;52.172;10.548;2023-02-15T14:50:44;13.82;;;8.82;;
53062;SDS011;40529;52.172;10.548;2023-02-15T15:01:17;10.70;;;7.13;;
53062;SDS011;40529;52.172;10.548;2023-02-15T15:03:51;10.38;;;6.68;;
53062;SDS011;40529;52.172;10.548;2023-02-15T15:08:58;12.88;;;7.00;;
53062;SDS011;40529;52.172;10.548;2023-02-15T15:13:58;7.03;;;4.88;;
53062;SDS011;40529;52.172;10.548;2023-02-15T15:18:50;13.43;;;7.55;;
53062;SDS011;40529;52.172;10.548;2023-02-15T15:24:02;12.13;;;7.55;;
53062;SDS011;40529;52.172;10.548;2023-02-15T15:26:29;11.07;;;7.43;;
53062;SDS011;40529;52.172;10.548;2023-02-15T15:28:59;12.25;;;7.68;;
53062;SDS011;40529;52.172;10.548;2023-02-15T15:36:54;12.60;;;7.40;;
53062;SDS011;40529;52.172;10.548;2023-02-15T15:44:52;13.32;;;7.97;;
53062;SDS011;40529;52.172;10.548;2023-02-15T15:49:57;13.30;;;8.02;;
53062;SDS011;40529;52.172;10.548;2023-02-15T15:52:24;13.40;;;7.43;;
53062;SDS011;40529;52.172;10.548;2023-02-15T15:57:41;12.85;;;7.97;;
53062;SDS011;40529;52.172;10.548;2023-02-15T16:02:53;10.88;;;7.50;;
53062;SDS011;40529;52.172;10.548;2023-02-15T16:05:22;14.27;;;8.07;;
53062;SDS011;40529;52.172;10.548;2023-02-15T16:07:49;13.38;;;7.50;;
53062;SDS011;40529;52.172;10.548;2023-02-15T16:10:25;13.95;;;8.00;;
53062;SDS011;40529;52.172;10.548;2023-02-15T16:12:52;13.70;;;8.23;;
53062;SDS011;40529;52.172;10.548;2023-02-15T16:15:28;13.40;;;7.90;;
53062;SDS011;40529;52.172;10.548;2023-02-15T16:17:57;12.00;;;8.07;;
53062;SDS011;40529;52.172;10.548;2023-02-15T16:20:27;15.95;;;8.93;;
53062;SDS011;40529;52.172;10.548;2023-02-15T16:25:55;12.77;;;8.02;;
53062;SDS011;40529;52.172;10.548;2023-02-15T16:28:24;12.00;;;8.10;;
53062;SDS011;40529;52.172;10.548;2023-02-15T16:31:33;15.10;;;7.80;;
53062;SDS011;40529;52.172;10.548;2023-02-15T16:33:40;11.98;;;8.07;;
53062;SDS011;40529;52.172;10.548;2023-02-15T16:36:10;14.60;;;8.60;;
53062;SDS011;40529;52.172;10.548;2023-02-15T16:41:30;14.00;;;8.88;;
53062;SDS011;40529;52.172;10.548;2023-02-15T16:43:57;14.20;;;9.30;;
53062;SDS011;40529;52.172;10.548;2023-02-15T16:46:28;15.75;;;9.40;;
53062;SDS011;40529;52.172;10.548;2023-02-15T16:48:56;13.93;;;8.93;;
53062;SDS011;40529;52.172;10.548;2023-02-15T16:51:24;14.85;;;8.40;;
53062;SDS011;40529;52.172;10.548;2023-02-15T16:53:52;13.60;;;8.70;;
53062;SDS011;40529;52.172;10.548;2023-02-15T16:56:29;13.27;;;9.00;;
53062;SDS011;40529;52.172;10.548;2023-02-15T16:58:55;16.58;;;9.30;;
53062;SDS011;40529;52.172;10.548;2023-02-15T17:01:24;15.93;;;9.20;;
53062;SDS011;40529;52.172;10.548;2023-02-15T17:03:50;14.68;;;8.98;;
53062;SDS011;40529;52.172;10.548;2023-02-15T17:06:21;16.00;;;9.57;;
53062;SDS011;40529;52.172;10.548;2023-02-15T17:08:47;16.60;;;9.65;;